createdAt,value
2023-02-09T00:00:06.864Z,37.80
2023-02-09T00:03:15.478Z,38.60
2023-02-09T00:06:23.767Z,36.80
2023-02-09T00:09:31.697Z,38.50
2023-02-09T00:12:40.051Z,38.30
2023-02-09T00:15:47.718Z,39.60
2023-02-09T00:18:55.705Z,39.60
2023-02-09T00:22:03.736Z,39.00
2023-02-09T00:25:11.734Z,39.70
2023-02-09T00:28:19.786Z,39.90
2023-02-09T00:31:28.174Z,39.80
2023-02-09T00:34:36.096Z,39.20
2023-02-09T00:37:43.925Z,38.20
2023-02-09T00:40:52.125Z,39.90
2023-02-09T00:44:00.678Z,36.30
2023-02-09T00:47:08.707Z,37.10
2023-02-09T00:50:16.685Z,36.70
2023-02-09T00:53:25.188Z,38.10
2023-02-09T00:56:32.816Z,37.60
2023-02-09T00:59:41.316Z,37.90
2023-02-09T01:02:49.836Z,34.80
2023-02-09T01:05:57.498Z,35.90
2023-02-09T01:09:05.914Z,36.60
2023-02-09T01:12:14.157Z,35.20
2023-02-09T01:15:22.286Z,37.60
2023-02-09T01:18:30.491Z,37.60
2023-02-09T01:21:38.822Z,36.00
2023-02-09T01:24:46.736Z,33.40
2023-02-09T01:27:54.787Z,33.50
2023-02-09T01:31:02.963Z,35.30
2023-02-09T01:34:11.635Z,33.50
2023-02-09T01:37:18.918Z,34.10
2023-02-09T01:40:26.229Z,34.60
2023-02-09T01:43:34.038Z,34.50
2023-02-09T01:46:41.424Z,35.30
2023-02-09T01:49:48.830Z,33.80
2023-02-09T01:52:56.187Z,34.50
2023-02-09T01:56:03.545Z,35.90
2023-02-09T01:59:11.176Z,35.00
2023-02-09T02:02:18.755Z,33.90
2023-02-09T02:05:25.583Z,34.60
2023-02-09T02:08:33.286Z,33.60
2023-02-09T02:11:40.600Z,32.60
2023-02-09T02:14:48.029Z,33.60
2023-02-09T02:17:55.421Z,33.10
2023-02-09T02:21:02.806Z,32.60
2023-02-09T02:24:10.256Z,32.80
2023-02-09T02:27:17.946Z,34.10
2023-02-09T02:30:24.838Z,32.90
2023-02-09T02:33:32.798Z,34.30
2023-02-09T02:36:39.751Z,33.60
2023-02-09T02:39:47.559Z,32.40
2023-02-09T02:42:54.798Z,33.30
2023-02-09T02:46:02.038Z,32.70
2023-02-09T02:49:09.322Z,31.30
2023-02-09T02:52:16.988Z,31.00
2023-02-09T02:55:24.278Z,32.40
2023-02-09T02:58:31.956Z,31.50
2023-02-09T03:01:39.482Z,33.60
2023-02-09T03:04:46.860Z,30.40
2023-02-09T03:07:54.740Z,30.70
2023-02-09T03:11:01.641Z,33.00
2023-02-09T03:14:09.409Z,30.60
2023-02-09T03:17:16.726Z,30.80
2023-02-09T03:20:24.268Z,30.40
2023-02-09T03:23:31.518Z,32.20
2023-02-09T03:26:38.768Z,30.20
2023-02-09T03:29:46.252Z,29.80
2023-02-09T03:32:54.017Z,30.30
2023-02-09T03:36:01.196Z,31.70
2023-02-09T03:39:09.174Z,30.90
2023-02-09T03:42:16.621Z,32.10
2023-02-09T03:45:24.102Z,32.00
2023-02-09T03:48:31.201Z,31.90
2023-02-09T03:51:38.524Z,32.40
2023-02-09T03:54:45.872Z,32.10
2023-02-09T03:57:53.641Z,32.60
2023-02-09T04:01:00.596Z,32.00
2023-02-09T04:04:08.480Z,32.80
2023-02-09T04:07:15.623Z,30.70
2023-02-09T04:10:23.890Z,29.10
2023-02-09T04:13:31.290Z,28.50
2023-02-09T04:16:38.916Z,29.30
2023-02-09T04:19:46.338Z,31.00
2023-02-09T04:22:53.754Z,28.70
2023-02-09T04:26:00.924Z,29.80
2023-02-09T04:29:08.729Z,28.40
2023-02-09T04:32:15.660Z,28.20
2023-02-09T04:35:24.541Z,31.30
2023-02-09T04:38:31.361Z,29.20
2023-02-09T04:41:39.237Z,31.30
2023-02-09T04:44:46.947Z,28.00
2023-02-09T04:47:54.307Z,26.60
2023-02-09T04:51:01.601Z,26.60
2023-02-09T04:54:09.749Z,29.40
2023-02-09T04:57:16.651Z,29.30
2023-02-09T05:00:24.380Z,29.20
2023-02-09T05:03:31.485Z,27.10
2023-02-09T05:06:39.040Z,29.70
2023-02-09T05:09:46.277Z,27.40
2023-02-09T05:12:53.660Z,28.10
2023-02-09T05:16:00.843Z,27.50
2023-02-09T05:19:07.793Z,27.10
2023-02-09T05:22:15.286Z,28.00
2023-02-09T05:25:23.138Z,26.90
2023-02-09T05:28:30.158Z,24.30
2023-02-09T05:31:37.964Z,26.60
2023-02-09T05:34:45.253Z,25.00
2023-02-09T05:37:52.927Z,26.30
2023-02-09T05:41:00.293Z,26.40
2023-02-09T05:44:07.790Z,25.70
2023-02-09T05:47:15.113Z,24.30
2023-02-09T05:50:22.760Z,24.30
2023-02-09T05:53:29.516Z,24.30
2023-02-09T05:56:37.180Z,25.70
2023-02-09T05:59:44.206Z,25.50
2023-02-09T06:02:52.612Z,26.00
2023-02-09T06:06:00.202Z,25.70
2023-02-09T06:09:07.664Z,26.40
2023-02-09T06:12:14.997Z,26.10
2023-02-09T06:15:22.797Z,26.60
2023-02-09T06:18:29.738Z,24.90
2023-02-09T06:21:37.463Z,25.80
2023-02-09T06:24:44.299Z,23.10
2023-02-09T06:27:51.992Z,24.10
2023-02-09T06:30:59.382Z,27.00
2023-02-09T06:34:06.956Z,27.20
2023-02-09T06:37:14.279Z,24.20
2023-02-09T06:40:21.682Z,26.60
2023-02-09T06:43:29.308Z,26.10
2023-02-09T06:46:37.010Z,25.90
2023-02-09T06:49:44.072Z,26.50
2023-02-09T06:52:51.977Z,25.70
2023-02-09T06:55:59.516Z,28.20
2023-02-09T06:59:06.994Z,25.20
2023-02-09T07:02:14.537Z,24.40
2023-02-09T07:05:22.181Z,24.60
2023-02-09T07:08:29.867Z,25.50
2023-02-09T07:11:37.977Z,23.40
2023-02-09T07:14:45.204Z,24.10
2023-02-09T07:17:53.394Z,25.20
2023-02-09T07:21:00.834Z,26.30
2023-02-09T07:24:08.569Z,24.50
2023-02-09T07:27:16.314Z,26.00
2023-02-09T07:30:23.768Z,24.90
2023-02-09T07:33:31.328Z,26.20
2023-02-09T07:36:39.195Z,25.30
2023-02-09T07:39:46.563Z,25.90
2023-02-09T07:42:54.672Z,25.20
2023-02-09T07:46:02.372Z,24.50
2023-02-09T07:49:09.885Z,25.00
2023-02-09T07:52:17.842Z,24.20
2023-02-09T07:55:25.375Z,23.60
2023-02-09T07:58:32.834Z,23.50
2023-02-09T08:01:41.033Z,21.90
2023-02-09T08:04:48.011Z,21.10
2023-02-09T08:07:56.224Z,21.40
2023-02-09T08:11:03.495Z,19.90
2023-02-09T08:14:11.070Z,19.70
2023-02-09T08:17:18.486Z,20.10
2023-02-09T08:20:25.886Z,18.80
2023-02-09T08:23:33.179Z,19.40
2023-02-09T08:26:41.054Z,18.20
2023-02-09T08:29:49.113Z,17.60
2023-02-09T08:32:57.053Z,18.40
2023-02-09T08:36:04.511Z,17.50
2023-02-09T08:39:12.013Z,18.00
2023-02-09T08:42:19.388Z,17.60
2023-02-09T08:45:27.166Z,17.90
2023-02-09T08:48:35.821Z,19.10
2023-02-09T08:51:43.643Z,19.00
2023-02-09T08:54:50.554Z,18.30
2023-02-09T08:57:58.381Z,17.60
2023-02-09T09:01:06.005Z,16.60
2023-02-09T09:04:13.550Z,14.80
2023-02-09T09:07:21.068Z,12.60
2023-02-09T09:10:28.503Z,10.60
2023-02-09T09:13:35.925Z,9.60
2023-02-09T09:16:43.686Z,9.40
2023-02-09T09:19:50.897Z,9.70
2023-02-09T09:22:58.978Z,9.80
2023-02-09T09:26:06.627Z,10.00
2023-02-09T09:29:14.164Z,9.60
2023-02-09T09:32:21.793Z,9.50
2023-02-09T09:35:29.459Z,9.50
2023-02-09T09:38:36.868Z,9.80
2023-02-09T09:41:44.705Z,8.40
2023-02-09T09:44:52.587Z,8.20
2023-02-09T09:47:59.474Z,8.70
2023-02-09T09:51:07.150Z,9.00
2023-02-09T09:54:14.738Z,8.70
2023-02-09T09:57:21.862Z,9.50
2023-02-09T10:00:29.468Z,9.60
2023-02-09T10:03:36.872Z,8.80
2023-02-09T10:06:44.919Z,9.60
2023-02-09T10:09:52.206Z,9.80
2023-02-09T10:12:59.390Z,8.70
2023-02-09T10:16:07.574Z,8.30
2023-02-09T10:19:14.619Z,9.00
2023-02-09T10:22:22.044Z,9.20
2023-02-09T10:25:29.745Z,8.60
2023-02-09T10:28:36.806Z,9.30
2023-02-09T10:31:44.677Z,9.10
2023-02-09T10:34:52.127Z,9.00
2023-02-09T10:37:59.574Z,8.30
2023-02-09T10:41:07.851Z,8.90
2023-02-09T10:44:15.460Z,8.80
2023-02-09T10:47:22.767Z,8.60
2023-02-09T10:50:30.458Z,8.20
2023-02-09T10:53:37.454Z,8.70
2023-02-09T10:56:45.058Z,7.80
2023-02-09T10:59:52.698Z,8.50
2023-02-09T11:02:59.696Z,8.70
2023-02-09T11:06:07.682Z,8.30
2023-02-09T11:09:14.809Z,8.60
2023-02-09T11:12:22.144Z,8.40
2023-02-09T11:15:30.082Z,8.70
2023-02-09T11:18:37.338Z,8.80
2023-02-09T11:21:44.689Z,8.60
2023-02-09T11:24:52.087Z,9.10
2023-02-09T11:27:59.396Z,8.90
2023-02-09T11:31:06.848Z,9.30
2023-02-09T11:34:14.376Z,8.70
2023-02-09T11:37:21.932Z,8.50
2023-02-09T11:40:29.231Z,8.50
2023-02-09T11:43:37.033Z,8.70
2023-02-09T11:46:44.829Z,8.20
2023-02-09T11:49:52.524Z,7.80
2023-02-09T11:53:00.145Z,8.20
2023-02-09T11:56:07.327Z,8.30
2023-02-09T11:59:15.440Z,9.60
2023-02-09T12:02:23.942Z,8.60
2023-02-09T12:05:30.990Z,8.40
2023-02-09T12:08:38.779Z,8.60
2023-02-09T12:11:46.191Z,9.00
2023-02-09T12:14:53.497Z,8.90
2023-02-09T12:18:01.288Z,7.90
2023-02-09T12:21:08.571Z,7.60
2023-02-09T12:24:16.080Z,7.70
2023-02-09T12:27:22.930Z,7.40
2023-02-09T12:30:31.067Z,8.70
2023-02-09T12:33:38.332Z,8.00
2023-02-09T12:36:45.617Z,7.90
2023-02-09T12:39:59.975Z,7.80
2023-02-09T12:42:56.560Z,7.60
2023-02-09T12:46:04.381Z,8.00
2023-02-09T12:49:12.429Z,8.20
2023-02-09T12:52:19.381Z,9.10
2023-02-09T12:55:27.335Z,8.00
2023-02-09T12:58:34.815Z,8.40
2023-02-09T13:01:42.134Z,7.40
2023-02-09T13:04:49.766Z,7.80
2023-02-09T13:07:57.211Z,8.10
2023-02-09T13:11:04.761Z,8.10
2023-02-09T13:14:12.578Z,8.10
2023-02-09T13:17:20.094Z,8.20
2023-02-09T13:20:27.436Z,8.40
2023-02-09T13:23:35.227Z,8.80
2023-02-09T13:26:42.595Z,8.40
2023-02-09T13:29:49.875Z,7.70
2023-02-09T13:32:57.635Z,8.50
2023-02-09T13:36:08.907Z,7.90
2023-02-09T13:39:08.221Z,8.00
2023-02-09T13:42:15.568Z,8.90
2023-02-09T13:45:23.020Z,7.80
2023-02-09T13:48:30.887Z,7.90
2023-02-09T13:51:38.195Z,7.60
2023-02-09T13:54:45.580Z,8.30
2023-02-09T13:57:53.206Z,7.30
2023-02-09T14:01:01.370Z,9.00
2023-02-09T14:04:08.989Z,8.40
2023-02-09T14:07:16.510Z,8.10
2023-02-09T14:10:24.404Z,8.50
2023-02-09T14:13:31.664Z,8.20
2023-02-09T14:16:52.602Z,8.10
2023-02-09T14:19:44.645Z,8.50
2023-02-09T14:22:51.577Z,7.90
2023-02-09T14:25:59.520Z,8.50
2023-02-09T14:29:06.773Z,9.00
2023-02-09T14:32:17.150Z,8.50
2023-02-09T14:35:17.791Z,9.20
2023-02-09T14:38:25.149Z,8.90
2023-02-09T14:41:32.552Z,9.80
2023-02-09T14:44:40.441Z,9.60
2023-02-09T14:47:48.153Z,9.00
2023-02-09T14:50:55.534Z,8.90
2023-02-09T14:54:02.837Z,9.00
2023-02-09T14:57:10.445Z,8.70
2023-02-09T15:00:17.329Z,9.40
2023-02-09T15:03:25.095Z,8.90
2023-02-09T15:06:33.136Z,10.20
2023-02-09T15:09:40.338Z,9.80
2023-02-09T15:12:48.462Z,9.50
2023-02-09T15:15:56.641Z,9.30
2023-02-09T15:19:03.670Z,9.70
2023-02-09T15:22:11.500Z,9.90
2023-02-09T15:25:19.013Z,10.00
2023-02-09T15:28:26.618Z,9.40
2023-02-09T15:31:34.328Z,10.60
2023-02-09T15:34:41.848Z,10.10
2023-02-09T15:37:49.336Z,10.30
2023-02-09T15:40:56.702Z,9.70
2023-02-09T15:44:04.495Z,9.30
2023-02-09T15:47:11.622Z,10.20
2023-02-09T15:50:19.504Z,9.40
2023-02-09T15:53:27.248Z,9.50
2023-02-09T15:56:34.156Z,9.90
2023-02-09T15:59:41.901Z,10.30
2023-02-09T16:02:49.498Z,9.50
2023-02-09T16:05:56.967Z,9.40
2023-02-09T16:09:04.833Z,9.70
2023-02-09T16:12:12.573Z,10.00
2023-02-09T16:15:19.967Z,9.60
2023-02-09T16:18:28.048Z,9.70
2023-02-09T16:21:35.368Z,10.10
2023-02-09T16:24:42.549Z,9.90
2023-02-09T16:27:50.122Z,10.50
2023-02-09T16:30:57.942Z,9.80
2023-02-09T16:34:05.306Z,9.50
2023-02-09T16:37:12.660Z,9.30
2023-02-09T16:40:20.144Z,8.40
2023-02-09T16:43:27.382Z,9.00
2023-02-09T16:46:34.601Z,10.20
2023-02-09T16:49:41.942Z,10.80
2023-02-09T16:52:48.945Z,11.10
2023-02-09T16:55:56.682Z,10.50
2023-02-09T16:59:03.957Z,9.40
2023-02-09T17:02:10.987Z,10.70
2023-02-09T17:05:18.849Z,10.20
2023-02-09T17:08:26.118Z,10.60
2023-02-09T17:11:33.250Z,10.60
2023-02-09T17:14:40.931Z,10.20
2023-02-09T17:17:47.894Z,11.50
2023-02-09T17:20:55.883Z,11.10
2023-02-09T17:24:03.672Z,10.40
2023-02-09T17:27:10.629Z,11.00
2023-02-09T17:30:18.334Z,12.40
2023-02-09T17:33:26.057Z,10.70
2023-02-09T17:36:33.270Z,12.60
2023-02-09T17:39:40.924Z,12.60
2023-02-09T17:42:48.220Z,13.20
2023-02-09T17:45:55.535Z,11.40
2023-02-09T17:49:03.218Z,11.50
2023-02-09T17:52:10.518Z,12.60
2023-02-09T17:55:17.992Z,11.40
2023-02-09T17:58:25.014Z,11.10
2023-02-09T18:01:32.806Z,10.90
2023-02-09T18:04:40.286Z,11.90
2023-02-09T18:07:47.329Z,11.60
2023-02-09T18:10:55.236Z,17.70
2023-02-09T18:14:02.480Z,18.50
2023-02-09T18:17:10.249Z,24.50
2023-02-09T18:20:17.553Z,13.60
2023-02-09T18:23:24.693Z,13.80
2023-02-09T18:26:31.995Z,15.20
2023-02-09T18:29:39.678Z,14.10
2023-02-09T18:32:46.838Z,12.80
2023-02-09T18:35:54.375Z,19.50
2023-02-09T18:39:01.825Z,23.80
2023-02-09T18:42:09.372Z,17.40
2023-02-09T18:45:17.293Z,15.50
2023-02-09T18:48:25.464Z,16.60
2023-02-09T18:51:32.556Z,15.70
2023-02-09T18:54:40.757Z,14.30
2023-02-09T18:57:47.644Z,14.90
2023-02-09T19:00:55.576Z,12.30
2023-02-09T19:04:03.378Z,10.60
2023-02-09T19:07:10.290Z,12.20
2023-02-09T19:10:17.953Z,13.30
2023-02-09T19:13:25.535Z,12.40
2023-02-09T19:16:32.627Z,12.30
2023-02-09T19:19:40.195Z,12.50
2023-02-09T19:22:47.723Z,11.70
2023-02-09T19:25:55.255Z,12.30
2023-02-09T19:29:02.865Z,11.80
2023-02-09T19:32:10.150Z,11.30
2023-02-09T19:35:17.535Z,11.60
2023-02-09T19:38:24.948Z,11.40
2023-02-09T19:41:32.449Z,11.80
2023-02-09T19:44:39.760Z,12.20
2023-02-09T19:47:46.943Z,11.20
2023-02-09T19:50:54.411Z,12.20
2023-02-09T19:54:01.920Z,12.60
2023-02-09T19:57:09.617Z,11.20
2023-02-09T20:00:17.539Z,11.90
2023-02-09T20:03:24.780Z,11.30
2023-02-09T20:06:32.268Z,11.60
2023-02-09T20:09:40.135Z,11.30
2023-02-09T20:12:47.514Z,11.80
2023-02-09T20:15:54.666Z,12.30
2023-02-09T20:19:02.069Z,12.70
2023-02-09T20:22:09.197Z,12.30
2023-02-09T20:25:16.720Z,12.40
2023-02-09T20:28:24.513Z,22.30
2023-02-09T20:31:31.601Z,12.90
2023-02-09T20:34:39.267Z,11.60
2023-02-09T20:37:47.122Z,13.40
2023-02-09T20:40:54.075Z,12.60
2023-02-09T20:44:01.721Z,12.50
2023-02-09T20:47:08.936Z,11.70
2023-02-09T20:50:16.249Z,11.90
2023-02-09T20:53:23.954Z,11.90
2023-02-09T20:56:31.114Z,11.50
2023-02-09T20:59:38.686Z,12.00
2023-02-09T21:02:46.366Z,11.50
2023-02-09T21:05:53.895Z,12.50
2023-02-09T21:09:01.286Z,12.60
2023-02-09T21:12:08.439Z,12.80
2023-02-09T21:15:15.904Z,12.00
2023-02-09T21:18:23.086Z,11.40
2023-02-09T21:21:30.279Z,11.90
2023-02-09T21:24:37.943Z,29.50
2023-02-09T21:27:44.737Z,18.50
2023-02-09T21:30:52.185Z,14.40
2023-02-09T21:33:59.678Z,13.10
2023-02-09T21:37:06.457Z,12.40
2023-02-09T21:40:13.993Z,13.20
2023-02-09T21:43:22.112Z,13.30
2023-02-09T21:46:29.168Z,13.40
2023-02-09T21:49:37.063Z,16.80
2023-02-09T21:52:44.642Z,25.70
2023-02-09T21:55:51.536Z,22.70
2023-02-09T21:58:59.182Z,17.00
2023-02-09T22:02:06.331Z,13.00
2023-02-09T22:05:13.507Z,14.10
2023-02-09T22:08:20.943Z,13.10
2023-02-09T22:11:28.083Z,13.20
2023-02-09T22:14:35.357Z,13.20
2023-02-09T22:17:43.020Z,12.60
2023-02-09T22:20:50.274Z,12.80
2023-02-09T22:23:57.804Z,13.80
2023-02-09T22:27:05.782Z,14.40
2023-02-09T22:30:13.042Z,13.30
2023-02-09T22:33:20.346Z,12.90
2023-02-09T22:36:27.641Z,13.10
2023-02-09T22:39:35.545Z,13.40
2023-02-09T22:42:42.756Z,13.70
2023-02-09T22:45:50.196Z,13.40
2023-02-09T22:48:58.391Z,12.80
2023-02-09T22:52:05.678Z,22.00
2023-02-09T22:55:13.061Z,14.80
2023-02-09T22:57:35.316Z,12.90
2023-02-09T23:00:42.019Z,13.10
2023-02-09T23:03:49.707Z,13.80
2023-02-09T23:06:57.248Z,14.10
2023-02-09T23:10:04.372Z,14.00
2023-02-09T23:13:12.095Z,14.60
2023-02-09T23:16:19.706Z,15.80
2023-02-09T23:19:27.091Z,14.80
2023-02-09T23:22:34.869Z,14.00
2023-02-09T23:25:42.155Z,15.00
2023-02-09T23:28:49.649Z,14.00
2023-02-09T23:31:57.391Z,14.20
2023-02-09T23:35:04.833Z,14.60
2023-02-09T23:38:12.132Z,14.70
2023-02-09T23:41:20.339Z,15.60
2023-02-09T23:44:27.851Z,14.30
2023-02-09T23:47:35.117Z,14.50
2023-02-09T23:50:42.332Z,14.80
2023-02-09T23:53:49.665Z,15.00
2023-02-09T23:56:57.262Z,15.80
